Terminal Aerodrome Forecast
Issued by NWS

Home | Current Version | Previous Version | Text Only | Print | Product List | Glossary Off
Versions: 1 2 3 4 5 6 7 8 9 10 11 12 13 14 15 16 17 18

000
FTUS43 KMPX 142300
TAFRWF
TAF
KRWF 142328Z 1500/1524 34014G22KT P6SM BKN060
     FM150200 33009KT P6SM FEW070
     FM150400 32005KT P6SM SKC
     FM152000 15010G16KT P6SM SCT150=

USA.gov is the U.S. government's official web portal to all federal, state and local government web resources and services.